sensor_id;sensor_type;location;lat;lon;timestamp;P1;durP1;ratioP1;P2;durP2;ratioP2
21517;SDS011;61765;45.794;24.150;2022-09-29T00:06:30;11.50;;;7.07;;
21517;SDS011;61765;45.794;24.150;2022-09-29T00:14:36;11.07;;;6.90;;
21517;SDS011;61765;45.794;24.150;2022-09-29T00:22:51;10.75;;;7.13;;
21517;SDS011;61765;45.794;24.150;2022-09-29T00:30:57;10.52;;;6.50;;
21517;SDS011;61765;45.794;24.150;2022-09-29T00:39:06;9.77;;;7.05;;
21517;SDS011;61765;45.794;24.150;2022-09-29T00:47:12;8.73;;;6.00;;
21517;SDS011;61765;45.794;24.150;2022-09-29T00:55:23;9.15;;;6.80;;
21517;SDS011;61765;45.794;24.150;2022-09-29T01:03:34;11.07;;;6.95;;
21517;SDS011;61765;45.794;24.150;2022-09-29T01:11:46;10.25;;;6.47;;
21517;SDS011;61765;45.794;24.150;2022-09-29T01:19:55;6.07;;;5.45;;
21517;SDS011;61765;45.794;24.150;2022-09-29T01:36:56;7.97;;;5.50;;
21517;SDS011;61765;45.794;24.150;2022-09-29T01:45:10;6.80;;;4.65;;
21517;SDS011;61765;45.794;24.150;2022-09-29T01:53:22;6.25;;;4.68;;
21517;SDS011;61765;45.794;24.150;2022-09-29T02:01:33;7.43;;;4.70;;
21517;SDS011;61765;45.794;24.150;2022-09-29T02:09:48;9.02;;;4.97;;
21517;SDS011;61765;45.794;24.150;2022-09-29T02:18:00;8.80;;;5.22;;
21517;SDS011;61765;45.794;24.150;2022-09-29T02:26:16;7.07;;;4.82;;
21517;SDS011;61765;45.794;24.150;2022-09-29T02:34:22;8.05;;;4.72;;
21517;SDS011;61765;45.794;24.150;2022-09-29T02:42:32;8.57;;;4.78;;
21517;SDS011;61765;45.794;24.150;2022-09-29T02:51:01;9.00;;;5.78;;
21517;SDS011;61765;45.794;24.150;2022-09-29T02:59:23;11.07;;;5.38;;
21517;SDS011;61765;45.794;24.150;2022-09-29T03:07:33;8.63;;;5.07;;
21517;SDS011;61765;45.794;24.150;2022-09-29T03:15:43;11.90;;;5.40;;
21517;SDS011;61765;45.794;24.150;2022-09-29T03:23:48;8.52;;;5.40;;
21517;SDS011;61765;45.794;24.150;2022-09-29T03:32:01;5.63;;;4.88;;
21517;SDS011;61765;45.794;24.150;2022-09-29T03:40:07;8.13;;;4.15;;
21517;SDS011;61765;45.794;24.150;2022-09-29T03:48:16;9.18;;;4.85;;
21517;SDS011;61765;45.794;24.150;2022-09-29T03:56:24;8.57;;;4.53;;
21517;SDS011;61765;45.794;24.150;2022-09-29T04:04:32;6.13;;;4.63;;
21517;SDS011;61765;45.794;24.150;2022-09-29T04:12:37;5.55;;;4.60;;
21517;SDS011;61765;45.794;24.150;2022-09-29T04:20:45;7.80;;;5.10;;
21517;SDS011;61765;45.794;24.150;2022-09-29T04:28:51;14.77;;;5.75;;
21517;SDS011;61765;45.794;24.150;2022-09-29T04:36:59;8.52;;;5.40;;
21517;SDS011;61765;45.794;24.150;2022-09-29T04:45:04;10.32;;;6.13;;
21517;SDS011;61765;45.794;24.150;2022-09-29T04:53:13;11.52;;;6.38;;
21517;SDS011;61765;45.794;24.150;2022-09-29T05:01:18;10.73;;;6.38;;
21517;SDS011;61765;45.794;24.150;2022-09-29T05:09:26;9.32;;;5.72;;
21517;SDS011;61765;45.794;24.150;2022-09-29T05:17:34;12.07;;;5.93;;
21517;SDS011;61765;45.794;24.150;2022-09-29T05:25:45;11.65;;;5.68;;
21517;SDS011;61765;45.794;24.150;2022-09-29T05:33:51;10.48;;;6.45;;
21517;SDS011;61765;45.794;24.150;2022-09-29T05:42:00;13.90;;;6.75;;
21517;SDS011;61765;45.794;24.150;2022-09-29T05:50:07;8.57;;;5.85;;
21517;SDS011;61765;45.794;24.150;2022-09-29T05:58:15;9.68;;;5.03;;
21517;SDS011;61765;45.794;24.150;2022-09-29T06:06:22;7.32;;;4.65;;
21517;SDS011;61765;45.794;24.150;2022-09-29T06:14:31;5.65;;;3.80;;
21517;SDS011;61765;45.794;24.150;2022-09-29T06:22:36;7.80;;;3.67;;
21517;SDS011;61765;45.794;24.150;2022-09-29T06:30:44;8.30;;;3.08;;
21517;SDS011;61765;45.794;24.150;2022-09-29T06:38:50;7.70;;;2.85;;
21517;SDS011;61765;45.794;24.150;2022-09-29T06:46:58;7.75;;;4.20;;
21517;SDS011;61765;45.794;24.150;2022-09-29T06:55:04;7.40;;;3.80;;
21517;SDS011;61765;45.794;24.150;2022-09-29T07:03:12;6.32;;;3.60;;
21517;SDS011;61765;45.794;24.150;2022-09-29T07:11:18;10.35;;;3.20;;
21517;SDS011;61765;45.794;24.150;2022-09-29T07:19:26;8.43;;;2.70;;
21517;SDS011;61765;45.794;24.150;2022-09-29T07:27:32;5.72;;;2.08;;
21517;SDS011;61765;45.794;24.150;2022-09-29T07:35:42;9.77;;;2.10;;
21517;SDS011;61765;45.794;24.150;2022-09-29T07:43:48;3.13;;;2.00;;
21517;SDS011;61765;45.794;24.150;2022-09-29T07:51:56;4.80;;;1.88;;
21517;SDS011;61765;45.794;24.150;2022-09-29T08:00:03;6.65;;;1.80;;
21517;SDS011;61765;45.794;24.150;2022-09-29T08:08:14;5.25;;;1.45;;
21517;SDS011;61765;45.794;24.150;2022-09-29T08:16:19;5.15;;;1.80;;
21517;SDS011;61765;45.794;24.150;2022-09-29T08:24:27;4.53;;;1.52;;
21517;SDS011;61765;45.794;24.150;2022-09-29T08:32:33;4.20;;;1.40;;
21517;SDS011;61765;45.794;24.150;2022-09-29T08:40:41;4.03;;;1.75;;
21517;SDS011;61765;45.794;24.150;2022-09-29T08:48:46;2.88;;;1.50;;
21517;SDS011;61765;45.794;24.150;2022-09-29T08:57:02;6.18;;;1.75;;
21517;SDS011;61765;45.794;24.150;2022-09-29T09:05:14;6.43;;;1.77;;
21517;SDS011;61765;45.794;24.150;2022-09-29T09:13:38;4.15;;;1.67;;
21517;SDS011;61765;45.794;24.150;2022-09-29T09:21:57;7.38;;;1.98;;
21517;SDS011;61765;45.794;24.150;2022-09-29T09:30:15;4.82;;;2.08;;
21517;SDS011;61765;45.794;24.150;2022-09-29T09:38:24;5.45;;;1.98;;
21517;SDS011;61765;45.794;24.150;2022-09-29T09:46:35;3.58;;;1.95;;
21517;SDS011;61765;45.794;24.150;2022-09-29T09:54:43;4.07;;;2.35;;
21517;SDS011;61765;45.794;24.150;2022-09-29T10:02:54;4.13;;;2.15;;
21517;SDS011;61765;45.794;24.150;2022-09-29T10:11:01;6.97;;;2.20;;
21517;SDS011;61765;45.794;24.150;2022-09-29T10:19:10;6.97;;;2.63;;
21517;SDS011;61765;45.794;24.150;2022-09-29T10:27:16;9.13;;;2.70;;
21517;SDS011;61765;45.794;24.150;2022-09-29T10:35:27;8.32;;;2.40;;
21517;SDS011;61765;45.794;24.150;2022-09-29T10:43:40;7.05;;;2.42;;
21517;SDS011;61765;45.794;24.150;2022-09-29T10:51:52;6.22;;;1.73;;
21517;SDS011;61765;45.794;24.150;2022-09-29T11:00:00;5.82;;;1.90;;
21517;SDS011;61765;45.794;24.150;2022-09-29T11:08:12;8.32;;;2.20;;
21517;SDS011;61765;45.794;24.150;2022-09-29T11:16:18;6.40;;;2.38;;
21517;SDS011;61765;45.794;24.150;2022-09-29T11:24:40;6.20;;;2.50;;
21517;SDS011;61765;45.794;24.150;2022-09-29T11:33:11;7.68;;;2.25;;
21517;SDS011;61765;45.794;24.150;2022-09-29T11:41:35;5.15;;;1.85;;
21517;SDS011;61765;45.794;24.150;2022-09-29T11:49:55;5.13;;;2.40;;
21517;SDS011;61765;45.794;24.150;2022-09-29T11:58:21;6.90;;;2.53;;
21517;SDS011;61765;45.794;24.150;2022-09-29T12:06:39;5.72;;;2.58;;
21517;SDS011;61765;45.794;24.150;2022-09-29T12:15:04;7.68;;;3.05;;
21517;SDS011;61765;45.794;24.150;2022-09-29T12:23:17;7.22;;;3.85;;
21517;SDS011;61765;45.794;24.150;2022-09-29T12:31:30;15.23;;;3.85;;
21517;SDS011;61765;45.794;24.150;2022-09-29T12:39:40;7.77;;;4.17;;
21517;SDS011;61765;45.794;24.150;2022-09-29T12:47:58;8.43;;;3.73;;
21517;SDS011;61765;45.794;24.150;2022-09-29T12:56:15;17.70;;;8.20;;
21517;SDS011;61765;45.794;24.150;2022-09-29T13:13:17;14.73;;;8.55;;
21517;SDS011;61765;45.794;24.150;2022-09-29T13:21:36;14.32;;;9.10;;
21517;SDS011;61765;45.794;24.150;2022-09-29T13:29:48;14.27;;;9.55;;
21517;SDS011;61765;45.794;24.150;2022-09-29T13:38:02;11.35;;;7.10;;
21517;SDS011;61765;45.794;24.150;2022-09-29T13:54:39;9.60;;;6.50;;
21517;SDS011;61765;45.794;24.150;2022-09-29T14:02:46;8.07;;;5.15;;
21517;SDS011;61765;45.794;24.150;2022-09-29T14:11:13;5.13;;;3.50;;
21517;SDS011;61765;45.794;24.150;2022-09-29T14:28:00;5.68;;;2.13;;
21517;SDS011;61765;45.794;24.150;2022-09-29T14:36:09;5.53;;;2.35;;
21517;SDS011;61765;45.794;24.150;2022-09-29T14:44:21;4.03;;;1.60;;
21517;SDS011;61765;45.794;24.150;2022-09-29T14:52:51;3.72;;;1.52;;
21517;SDS011;61765;45.794;24.150;2022-09-29T15:01:08;4.35;;;1.60;;
21517;SDS011;61765;45.794;24.150;2022-09-29T15:09:20;4.60;;;1.88;;
21517;SDS011;61765;45.794;24.150;2022-09-29T15:17:38;5.85;;;1.60;;
21517;SDS011;61765;45.794;24.150;2022-09-29T15:25:52;4.43;;;1.63;;
21517;SDS011;61765;45.794;24.150;2022-09-29T15:34:23;22.83;;;10.00;;
21517;SDS011;61765;45.794;24.150;2022-09-29T15:42:29;15.80;;;5.88;;
21517;SDS011;61765;45.794;24.150;2022-09-29T15:50:40;11.75;;;4.22;;
21517;SDS011;61765;45.794;24.150;2022-09-29T15:58:46;16.63;;;6.93;;
21517;SDS011;61765;45.794;24.150;2022-09-29T16:06:54;6.03;;;3.00;;
21517;SDS011;61765;45.794;24.150;2022-09-29T16:14:59;7.10;;;2.20;;
21517;SDS011;61765;45.794;24.150;2022-09-29T16:23:13;5.13;;;2.28;;
21517;SDS011;61765;45.794;24.150;2022-09-29T16:31:23;4.95;;;1.90;;
21517;SDS011;61765;45.794;24.150;2022-09-29T16:39:39;4.38;;;2.33;;
21517;SDS011;61765;45.794;24.150;2022-09-29T16:47:46;4.68;;;1.55;;
21517;SDS011;61765;45.794;24.150;2022-09-29T16:55:58;4.88;;;2.20;;
21517;SDS011;61765;45.794;24.150;2022-09-29T17:04:04;5.83;;;3.83;;
21517;SDS011;61765;45.794;24.150;2022-09-29T17:12:13;8.85;;;5.57;;
21517;SDS011;61765;45.794;24.150;2022-09-29T17:20:20;12.43;;;5.05;;
21517;SDS011;61765;45.794;24.150;2022-09-29T17:28:33;8.02;;;3.92;;
21517;SDS011;61765;45.794;24.150;2022-09-29T17:36:39;8.88;;;4.72;;
21517;SDS011;61765;45.794;24.150;2022-09-29T17:44:47;9.70;;;5.78;;
21517;SDS011;61765;45.794;24.150;2022-09-29T17:52:52;14.98;;;6.18;;
21517;SDS011;61765;45.794;24.150;2022-09-29T18:01:02;14.32;;;7.97;;
21517;SDS011;61765;45.794;24.150;2022-09-29T18:09:11;22.13;;;10.48;;
21517;SDS011;61765;45.794;24.150;2022-09-29T18:17:21;19.83;;;11.48;;
21517;SDS011;61765;45.794;24.150;2022-09-29T18:25:26;18.30;;;10.65;;
21517;SDS011;61765;45.794;24.150;2022-09-29T18:33:35;16.67;;;10.40;;
21517;SDS011;61765;45.794;24.150;2022-09-29T18:41:40;16.77;;;10.32;;
21517;SDS011;61765;45.794;24.150;2022-09-29T18:49:48;15.13;;;9.68;;
21517;SDS011;61765;45.794;24.150;2022-09-29T18:57:57;14.85;;;8.85;;
21517;SDS011;61765;45.794;24.150;2022-09-29T19:06:07;17.90;;;8.75;;
21517;SDS011;61765;45.794;24.150;2022-09-29T19:14:16;16.30;;;9.75;;
21517;SDS011;61765;45.794;24.150;2022-09-29T19:22:26;19.55;;;9.93;;
21517;SDS011;61765;45.794;24.150;2022-09-29T19:30:39;19.20;;;9.18;;
21517;SDS011;61765;45.794;24.150;2022-09-29T19:38:48;19.10;;;9.50;;
21517;SDS011;61765;45.794;24.150;2022-09-29T19:46:54;18.42;;;9.43;;
21517;SDS011;61765;45.794;24.150;2022-09-29T19:55:02;14.05;;;8.05;;
21517;SDS011;61765;45.794;24.150;2022-09-29T20:03:12;17.25;;;7.57;;
21517;SDS011;61765;45.794;24.150;2022-09-29T20:11:20;17.83;;;9.73;;
21517;SDS011;61765;45.794;24.150;2022-09-29T20:19:25;19.60;;;9.02;;
21517;SDS011;61765;45.794;24.150;2022-09-29T20:27:35;13.48;;;8.50;;
21517;SDS011;61765;45.794;24.150;2022-09-29T20:35:41;16.88;;;7.85;;
21517;SDS011;61765;45.794;24.150;2022-09-29T20:43:49;15.07;;;7.72;;
21517;SDS011;61765;45.794;24.150;2022-09-29T20:51:56;12.48;;;6.50;;
21517;SDS011;61765;45.794;24.150;2022-09-29T21:00:05;10.80;;;5.72;;
21517;SDS011;61765;45.794;24.150;2022-09-29T21:08:13;8.60;;;5.28;;
21517;SDS011;61765;45.794;24.150;2022-09-29T21:16:21;8.82;;;5.32;;
21517;SDS011;61765;45.794;24.150;2022-09-29T21:24:27;9.65;;;5.18;;
21517;SDS011;61765;45.794;24.150;2022-09-29T21:32:35;9.25;;;4.60;;
21517;SDS011;61765;45.794;24.150;2022-09-29T21:40:41;8.13;;;4.65;;
21517;SDS011;61765;45.794;24.150;2022-09-29T21:48:51;10.70;;;5.13;;
21517;SDS011;61765;45.794;24.150;2022-09-29T21:56:57;10.30;;;5.35;;
21517;SDS011;61765;45.794;24.150;2022-09-29T22:05:05;12.48;;;5.05;;
21517;SDS011;61765;45.794;24.150;2022-09-29T22:13:10;10.05;;;5.22;;
21517;SDS011;61765;45.794;24.150;2022-09-29T22:21:19;10.15;;;4.65;;
21517;SDS011;61765;45.794;24.150;2022-09-29T22:29:26;6.95;;;4.78;;
21517;SDS011;61765;45.794;24.150;2022-09-29T22:37:35;8.65;;;4.85;;
21517;SDS011;61765;45.794;24.150;2022-09-29T22:45:40;7.20;;;4.28;;
21517;SDS011;61765;45.794;24.150;2022-09-29T22:53:53;6.65;;;4.72;;
21517;SDS011;61765;45.794;24.150;2022-09-29T23:01:58;7.45;;;4.30;;
21517;SDS011;61765;45.794;24.150;2022-09-29T23:10:07;10.07;;;4.38;;
21517;SDS011;61765;45.794;24.150;2022-09-29T23:18:13;8.40;;;4.25;;
21517;SDS011;61765;45.794;24.150;2022-09-29T23:26:21;12.98;;;4.18;;
21517;SDS011;61765;45.794;24.150;2022-09-29T23:34:27;8.15;;;3.03;;
21517;SDS011;61765;45.794;24.150;2022-09-29T23:42:35;5.90;;;3.00;;
21517;SDS011;61765;45.794;24.150;2022-09-29T23:50:41;6.75;;;3.55;;
21517;SDS011;61765;45.794;24.150;2022-09-29T23:58:49;9.43;;;4.97;;
